createdAt,value
2017-06-04T00:00:52.077Z,1025.36
2017-06-04T00:01:52.050Z,1025.34
2017-06-04T00:02:52.047Z,1025.33
2017-06-04T00:03:52.046Z,1025.31
2017-06-04T00:04:52.044Z,1025.32
2017-06-04T00:05:52.042Z,1025.32
2017-06-04T00:06:52.039Z,1025.28
2017-06-04T00:07:52.037Z,1025.23
2017-06-04T00:08:52.034Z,1025.26
2017-06-04T00:09:52.033Z,1025.23
2017-06-04T00:10:52.031Z,1025.19
2017-06-04T00:11:52.028Z,1025.21
2017-06-04T00:12:52.026Z,1025.21
2017-06-04T00:13:52.024Z,1025.17
2017-06-04T00:14:52.021Z,1025.15
2017-06-04T00:15:52.021Z,1025.14
2017-06-04T00:16:52.018Z,1025.14
2017-06-04T00:17:52.014Z,1025.12
2017-06-04T00:18:52.012Z,1025.18
2017-06-04T00:19:52.011Z,1025.18
2017-06-04T00:20:52.009Z,1025.23
2017-06-04T00:21:52.008Z,1025.2
2017-06-04T00:22:52.005Z,1025.21
2017-06-04T00:23:52.004Z,1025.19
2017-06-04T00:24:52.000Z,1025.18
2017-06-04T00:25:51.997Z,1025.21
2017-06-04T00:26:51.996Z,1025.21
2017-06-04T00:27:51.994Z,1025.23
2017-06-04T00:28:51.990Z,1025.2
2017-06-04T00:29:51.988Z,1025.25
2017-06-04T00:30:51.987Z,1025.26
2017-06-04T00:31:51.983Z,1025.26
2017-06-04T00:32:51.981Z,1025.28
2017-06-04T00:33:51.979Z,1025.28
2017-06-04T00:34:51.979Z,1025.27
2017-06-04T00:35:51.974Z,1025.27
2017-06-04T00:36:51.972Z,1025.24
2017-06-04T00:37:51.970Z,1025.27
2017-06-04T00:38:51.968Z,1025.27
2017-06-04T00:39:51.964Z,1025.27
2017-06-04T00:40:51.965Z,1025.26
2017-06-04T00:41:51.960Z,1025.28
2017-06-04T00:42:51.957Z,1025.3
2017-06-04T00:43:51.955Z,1025.31
2017-06-04T00:44:51.952Z,1025.32
2017-06-04T00:45:51.949Z,1025.37
2017-06-04T00:46:51.949Z,1025.4
2017-06-04T00:47:51.944Z,1025.45
2017-06-04T00:48:51.941Z,1025.41
2017-06-04T00:49:51.939Z,1025.4
2017-06-04T00:50:51.935Z,1025.46
2017-06-04T00:51:51.933Z,1025.46
2017-06-04T00:52:51.931Z,1025.42
2017-06-04T00:53:51.927Z,1025.46
2017-06-04T00:54:51.925Z,1025.43
2017-06-04T00:55:51.923Z,1025.44
2017-06-04T00:56:51.920Z,1025.47
2017-06-04T00:57:51.917Z,1025.47
2017-06-04T00:58:51.914Z,1025.46
2017-06-04T00:59:51.911Z,1025.45
2017-06-04T01:00:51.909Z,1025.43
2017-06-04T01:01:51.905Z,1025.45
2017-06-04T01:02:51.902Z,1025.37
2017-06-04T01:03:51.900Z,1025.42
2017-06-04T01:04:51.896Z,1025.38
2017-06-04T01:05:51.894Z,1025.37
2017-06-04T01:06:51.891Z,1025.37
2017-06-04T01:07:51.887Z,1025.32
2017-06-04T01:08:51.884Z,1025.28
2017-06-04T01:09:51.882Z,1025.27
2017-06-04T01:10:51.878Z,1025.26
2017-06-04T01:11:51.876Z,1025.25
2017-06-04T01:12:51.873Z,1025.2
2017-06-04T01:13:51.870Z,1025.21
2017-06-04T01:14:51.867Z,1025.2
2017-06-04T01:15:51.863Z,1025.18
2017-06-04T01:16:51.861Z,1025.16
2017-06-04T01:17:51.857Z,1025.21
2017-06-04T01:18:51.855Z,1025.2
2017-06-04T01:19:51.851Z,1025.21
2017-06-04T01:20:51.848Z,1025.19
2017-06-04T01:21:51.845Z,1025.16
2017-06-04T01:22:51.842Z,1025.18
2017-06-04T01:23:51.838Z,1025.15
2017-06-04T01:24:51.835Z,1025.18
2017-06-04T01:25:51.833Z,1025.24
2017-06-04T01:26:51.829Z,1025.25
2017-06-04T01:27:51.826Z,1025.28
2017-06-04T01:28:51.823Z,1025.28
2017-06-04T01:29:51.820Z,1025.26
2017-06-04T01:30:51.816Z,1025.29
2017-06-04T01:31:51.813Z,1025.28
2017-06-04T01:32:51.810Z,1025.28
2017-06-04T01:33:51.808Z,1025.27
2017-06-04T01:34:51.803Z,1025.24
2017-06-04T01:35:51.800Z,1025.27
2017-06-04T01:36:51.797Z,1025.27
2017-06-04T01:37:51.793Z,1025.22
2017-06-04T01:38:51.792Z,1025.25
2017-06-04T01:39:51.788Z,1025.2
2017-06-04T01:40:51.785Z,1025.17
2017-06-04T01:41:51.780Z,1025.12
2017-06-04T01:42:51.777Z,1025.05
2017-06-04T01:43:51.777Z,1024.99
2017-06-04T01:44:51.771Z,1024.98
2017-06-04T01:45:51.767Z,1024.94
2017-06-04T01:46:51.764Z,1024.9
2017-06-04T01:47:51.763Z,1024.92
2017-06-04T01:48:51.757Z,1024.88
2017-06-04T01:49:51.753Z,1024.85
2017-06-04T01:50:51.751Z,1024.79
2017-06-04T01:51:51.748Z,1024.76
2017-06-04T01:52:51.743Z,1024.76
2017-06-04T01:53:51.740Z,1024.71
2017-06-04T01:54:51.737Z,1024.71
2017-06-04T01:55:51.735Z,1024.69
2017-06-04T01:56:51.731Z,1024.68
2017-06-04T01:57:51.728Z,1024.65
2017-06-04T01:58:51.726Z,1024.61
2017-06-04T01:59:51.721Z,1024.62
2017-06-04T02:00:51.718Z,1024.56
2017-06-04T02:01:51.716Z,1024.52
2017-06-04T02:02:51.713Z,1024.5
2017-06-04T02:03:51.709Z,1024.45
2017-06-04T02:04:51.706Z,1024.41
2017-06-04T02:05:51.703Z,1024.45
2017-06-04T02:06:51.699Z,1024.43
2017-06-04T02:07:51.696Z,1024.45
2017-06-04T02:08:51.695Z,1024.45
2017-06-04T02:09:51.690Z,1024.44
2017-06-04T02:10:51.686Z,1024.43
2017-06-04T02:11:51.683Z,1024.45
2017-06-04T02:12:51.681Z,1024.44
2017-06-04T02:13:51.678Z,1024.47
2017-06-04T02:14:51.674Z,1024.46
2017-06-04T02:15:51.670Z,1024.47
2017-06-04T02:16:51.668Z,1024.43
2017-06-04T02:17:51.664Z,1024.47
2017-06-04T02:18:51.661Z,1024.45
2017-06-04T02:19:51.909Z,1024.42
2017-06-04T02:20:51.655Z,1024.4
2017-06-04T02:21:51.651Z,1024.36
2017-06-04T02:22:51.649Z,1024.28
2017-06-04T02:23:51.647Z,1024.25
2017-06-04T02:24:51.643Z,1024.19
2017-06-04T02:25:51.640Z,1024.17
2017-06-04T02:26:51.636Z,1024.11
2017-06-04T02:27:51.634Z,1024.12
2017-06-04T02:28:51.631Z,1024.08
2017-06-04T02:29:51.628Z,1024.02
2017-06-04T02:30:51.625Z,1024.02
2017-06-04T02:31:51.623Z,1024.03
2017-06-04T02:32:51.619Z,1024.01
2017-06-04T02:33:51.617Z,1024.03
2017-06-04T02:34:51.613Z,1024.05
2017-06-04T02:35:51.610Z,1024.06
2017-06-04T02:36:51.608Z,1024.11
2017-06-04T02:37:51.604Z,1024.05
2017-06-04T02:38:51.601Z,1024.08
2017-06-04T02:39:51.599Z,1024.05
2017-06-04T02:40:51.595Z,1024.04
2017-06-04T02:41:51.593Z,1024.07
2017-06-04T02:42:51.591Z,1024.06
2017-06-04T02:43:51.586Z,1024.08
2017-06-04T02:44:51.584Z,1024.11
2017-06-04T02:45:51.581Z,1024.12
2017-06-04T02:46:51.580Z,1024.13
2017-06-04T02:47:51.577Z,1024.09
2017-06-04T02:48:51.573Z,1024.07
2017-06-04T02:49:51.570Z,1024.04
2017-06-04T02:50:51.566Z,1023.99
2017-06-04T02:51:51.563Z,1023.97
2017-06-04T02:52:51.561Z,1023.96
2017-06-04T02:53:51.559Z,1023.96
2017-06-04T02:54:51.554Z,1024.02
2017-06-04T02:55:51.552Z,1024.04
2017-06-04T02:56:51.549Z,1024.08
2017-06-04T02:57:51.546Z,1024.09
2017-06-04T02:58:51.543Z,1024.08
2017-06-04T02:59:51.541Z,1024.09
2017-06-04T03:00:51.537Z,1024.09
2017-06-04T03:01:51.534Z,1024.07
2017-06-04T03:02:51.531Z,1024.05
2017-06-04T03:03:51.529Z,1024.07
2017-06-04T03:04:51.526Z,1024.05
2017-06-04T03:05:51.523Z,1024.04
2017-06-04T03:06:51.519Z,1024
2017-06-04T03:07:51.526Z,1023.95
2017-06-04T03:08:51.514Z,1023.93
2017-06-04T03:09:51.510Z,1023.88
2017-06-04T03:10:51.508Z,1023.87
2017-06-04T03:11:51.506Z,1023.87
2017-06-04T03:12:51.502Z,1023.87
2017-06-04T03:13:51.499Z,1023.87
2017-06-04T03:14:51.497Z,1023.87
2017-06-04T03:15:51.494Z,1023.86
2017-06-04T03:16:51.489Z,1023.81
2017-06-04T03:17:51.488Z,1023.85
2017-06-04T03:18:51.484Z,1023.89
2017-06-04T03:19:51.483Z,1023.88
2017-06-04T03:20:51.479Z,1023.92
2017-06-04T03:21:51.476Z,1023.9
2017-06-04T03:22:51.474Z,1023.92
2017-06-04T03:23:51.470Z,1023.87
2017-06-04T03:24:51.467Z,1023.88
2017-06-04T03:25:51.466Z,1023.87
2017-06-04T03:26:51.462Z,1023.8
2017-06-04T03:27:51.459Z,1023.76
2017-06-04T03:28:51.457Z,1023.76
2017-06-04T03:29:51.454Z,1023.74
2017-06-04T03:30:51.451Z,1023.71
2017-06-04T03:31:51.449Z,1023.71
2017-06-04T03:32:51.446Z,1023.72
2017-06-04T03:33:51.443Z,1023.65
2017-06-04T03:34:51.440Z,1023.62
2017-06-04T03:35:51.438Z,1023.61
2017-06-04T03:36:51.435Z,1023.57
2017-06-04T03:37:51.433Z,1023.52
2017-06-04T03:38:51.429Z,1023.49
2017-06-04T03:39:51.427Z,1023.45
2017-06-04T03:40:51.424Z,1023.42
2017-06-04T03:41:51.421Z,1023.37
2017-06-04T03:42:51.419Z,1023.33
2017-06-04T03:43:51.416Z,1023.32
2017-06-04T03:44:51.413Z,1023.25
2017-06-04T03:45:51.410Z,1023.21
2017-06-04T03:46:51.408Z,1023.14
2017-06-04T03:47:51.405Z,1023.12
2017-06-04T03:48:51.403Z,1023.11
2017-06-04T03:49:51.400Z,1023.08
2017-06-04T03:50:51.397Z,1023.09
2017-06-04T03:51:51.395Z,1023.06
2017-06-04T03:52:51.392Z,1023.08
2017-06-04T03:53:51.390Z,1023
2017-06-04T03:54:51.388Z,1023.02
2017-06-04T03:55:51.385Z,1023
2017-06-04T03:56:51.381Z,1022.98
2017-06-04T03:57:51.380Z,1022.98
2017-06-04T03:58:51.378Z,1023.01
2017-06-04T03:59:51.626Z,1022.97
2017-06-04T04:00:51.372Z,1022.95
2017-06-04T04:01:51.370Z,1022.89
2017-06-04T04:02:51.368Z,1022.84
2017-06-04T04:03:51.365Z,1022.83
2017-06-04T04:04:51.364Z,1022.82
2017-06-04T04:05:51.362Z,1022.82
2017-06-04T04:06:51.360Z,1022.8
2017-06-04T04:07:51.356Z,1022.75
2017-06-04T04:08:51.354Z,1022.73
2017-06-04T04:09:51.353Z,1022.68
2017-06-04T04:10:51.352Z,1022.6
2017-06-04T04:11:51.348Z,1022.54
2017-06-04T04:12:51.346Z,1022.5
2017-06-04T04:13:51.344Z,1022.44
2017-06-04T04:14:51.341Z,1022.41
2017-06-04T04:15:51.339Z,1022.42
2017-06-04T04:16:51.337Z,1022.41
2017-06-04T04:17:51.336Z,1022.37
2017-06-04T04:18:51.334Z,1022.36
2017-06-04T04:19:51.332Z,1022.3
2017-06-04T04:20:51.330Z,1022.32
2017-06-04T04:21:51.333Z,1022.22
2017-06-04T04:22:51.326Z,1022.21
2017-06-04T04:23:51.324Z,1022.14
2017-06-04T04:24:51.323Z,1022.09
2017-06-04T04:25:51.321Z,1022.07
2017-06-04T04:26:51.320Z,1021.93
2017-06-04T04:27:51.317Z,1021.87
2017-06-04T04:28:51.316Z,1021.79
2017-06-04T04:29:51.314Z,1021.71
2017-06-04T04:30:51.312Z,1021.71
2017-06-04T04:31:51.311Z,1021.65
2017-06-04T04:32:51.309Z,1021.61
2017-06-04T04:33:51.308Z,1021.65
2017-06-04T04:34:51.307Z,1021.63
2017-06-04T04:35:51.305Z,1021.62
2017-06-04T04:36:51.303Z,1021.62
2017-06-04T04:37:51.302Z,1021.61
2017-06-04T04:38:51.301Z,1021.62
2017-06-04T04:39:51.300Z,1021.63
2017-06-04T04:40:51.297Z,1021.67
2017-06-04T04:41:51.319Z,1021.74
2017-06-04T04:42:51.295Z,1021.79
2017-06-04T04:43:51.295Z,1021.81
2017-06-04T04:44:51.293Z,1021.88
2017-06-04T04:45:51.291Z,1021.83
2017-06-04T04:46:51.290Z,1021.88
2017-06-04T04:47:51.291Z,1021.9
2017-06-04T04:48:51.290Z,1021.93
2017-06-04T04:49:51.287Z,1021.91
2017-06-04T04:50:51.285Z,1021.9
2017-06-04T04:51:51.283Z,1021.93
2017-06-04T04:52:51.282Z,1021.9
2017-06-04T04:53:51.282Z,1021.94
2017-06-04T04:54:51.280Z,1021.92
2017-06-04T04:55:51.278Z,1021.9
2017-06-04T04:56:51.277Z,1021.95
2017-06-04T04:57:51.276Z,1021.96
2017-06-04T04:58:51.273Z,1021.94
2017-06-04T04:59:51.272Z,1021.96
2017-06-04T05:00:51.271Z,1021.95
2017-06-04T05:01:51.270Z,1021.94
2017-06-04T05:02:51.267Z,1021.95
2017-06-04T05:03:51.268Z,1021.92
2017-06-04T05:04:51.266Z,1021.93
2017-06-04T05:05:51.266Z,1021.9
2017-06-04T05:06:51.264Z,1021.93
2017-06-04T05:07:51.263Z,1021.93
2017-06-04T05:08:51.262Z,1021.92
2017-06-04T05:09:51.260Z,1021.92
2017-06-04T05:10:51.259Z,1021.93
2017-06-04T05:11:51.257Z,1021.94
2017-06-04T05:12:51.258Z,1021.98
2017-06-04T05:13:51.254Z,1021.97
2017-06-04T05:14:51.254Z,1021.97
2017-06-04T05:15:51.252Z,1021.89
2017-06-04T05:16:51.250Z,1021.89
2017-06-04T05:17:51.249Z,1021.87
2017-06-04T05:18:51.248Z,1021.9
2017-06-04T05:19:51.249Z,1021.92
2017-06-04T05:20:51.245Z,1021.88
2017-06-04T05:21:51.244Z,1021.87
2017-06-04T05:22:51.243Z,1021.87
2017-06-04T05:23:51.241Z,1021.89
2017-06-04T05:24:51.239Z,1021.9
2017-06-04T05:25:51.238Z,1021.89
2017-06-04T05:26:51.236Z,1021.86
2017-06-04T05:27:51.235Z,1021.87
2017-06-04T05:28:51.234Z,1021.89
2017-06-04T05:29:51.233Z,1021.89
2017-06-04T05:30:51.233Z,1021.91
2017-06-04T05:31:51.230Z,1021.93
2017-06-04T05:32:51.230Z,1021.93
2017-06-04T05:33:51.229Z,1021.89
2017-06-04T05:34:51.228Z,1021.92
2017-06-04T05:35:51.226Z,1021.88
2017-06-04T05:36:51.225Z,1021.93
2017-06-04T05:37:51.224Z,1021.97
2017-06-04T05:38:51.222Z,1021.98
2017-06-04T05:39:51.221Z,1022
2017-06-04T05:40:51.221Z,1022.05
2017-06-04T05:41:51.220Z,1022.06
2017-06-04T05:42:51.218Z,1022.12
2017-06-04T05:43:51.217Z,1022.1
2017-06-04T05:44:51.215Z,1022.12
2017-06-04T05:45:51.215Z,1022.19
2017-06-04T05:46:51.213Z,1022.22
2017-06-04T05:47:51.212Z,1022.21
2017-06-04T05:48:51.211Z,1022.27
2017-06-04T05:49:51.210Z,1022.3
2017-06-04T05:50:51.207Z,1022.32
2017-06-04T05:51:51.207Z,1022.35
2017-06-04T05:52:51.206Z,1022.33
2017-06-04T05:53:51.204Z,1022.33
2017-06-04T05:54:51.203Z,1022.27
2017-06-04T05:55:51.202Z,1022.31
2017-06-04T05:56:51.201Z,1022.27
2017-06-04T05:57:51.199Z,1022.23
2017-06-04T05:58:51.199Z,1022.17
2017-06-04T05:59:51.197Z,1022.16
2017-06-04T06:00:51.195Z,1022.14
2017-06-04T06:01:51.194Z,1022.14
2017-06-04T06:02:51.193Z,1022.21
2017-06-04T06:03:51.192Z,1022.23
2017-06-04T06:04:51.190Z,1022.25
2017-06-04T06:05:51.189Z,1022.28
2017-06-04T06:06:51.189Z,1022.32
2017-06-04T06:07:51.188Z,1022.34
2017-06-04T06:08:51.186Z,1022.35
2017-06-04T06:09:51.186Z,1022.39
2017-06-04T06:10:51.184Z,1022.4
2017-06-04T06:11:51.183Z,1022.39
2017-06-04T06:12:51.181Z,1022.39
2017-06-04T06:13:51.181Z,1022.38
2017-06-04T06:14:51.180Z,1022.4
2017-06-04T06:15:51.177Z,1022.42
2017-06-04T06:16:51.177Z,1022.45
2017-06-04T06:17:51.176Z,1022.46
2017-06-04T06:18:51.175Z,1022.54
2017-06-04T06:19:51.174Z,1022.54
2017-06-04T06:20:51.173Z,1022.61
2017-06-04T06:21:51.172Z,1022.6
2017-06-04T06:22:51.170Z,1022.61
2017-06-04T06:23:51.169Z,1022.62
2017-06-04T06:24:51.168Z,1022.65
2017-06-04T06:25:51.167Z,1022.68
2017-06-04T06:26:51.166Z,1022.65
2017-06-04T06:27:51.165Z,1022.62
2017-06-04T06:28:51.164Z,1022.6
2017-06-04T06:29:51.163Z,1022.58
2017-06-04T06:30:51.160Z,1022.54
2017-06-04T06:31:51.159Z,1022.54
2017-06-04T06:32:51.159Z,1022.56
2017-06-04T06:33:51.157Z,1022.59
2017-06-04T06:34:51.156Z,1022.61
2017-06-04T06:35:51.155Z,1022.56
2017-06-04T06:36:51.154Z,1022.55
2017-06-04T06:37:51.152Z,1022.55
2017-06-04T06:38:51.151Z,1022.52
2017-06-04T06:39:51.150Z,1022.51
2017-06-04T06:40:51.148Z,1022.47
2017-06-04T06:41:51.148Z,1022.47
2017-06-04T06:42:51.147Z,1022.47
2017-06-04T06:43:51.145Z,1022.43
2017-06-04T06:44:51.394Z,1022.44
2017-06-04T06:45:51.142Z,1022.43
2017-06-04T06:46:51.142Z,1022.44
2017-06-04T06:47:51.141Z,1022.47
2017-06-04T06:48:51.138Z,1022.43
2017-06-04T06:49:51.138Z,1022.43
2017-06-04T06:50:51.136Z,1022.42
2017-06-04T06:51:51.134Z,1022.42
2017-06-04T06:52:51.134Z,1022.4
2017-06-04T06:53:51.133Z,1022.37
2017-06-04T06:54:51.132Z,1022.33
2017-06-04T06:55:51.130Z,1022.29
2017-06-04T06:56:51.128Z,1022.22
2017-06-04T06:57:51.127Z,1022.22
2017-06-04T06:58:51.127Z,1022.23
2017-06-04T06:59:51.125Z,1022.26
2017-06-04T07:00:51.124Z,1022.27
2017-06-04T07:01:51.123Z,1022.28
2017-06-04T07:02:51.121Z,1022.26
2017-06-04T07:03:51.120Z,1022.26
2017-06-04T07:04:51.119Z,1022.24
2017-06-04T07:05:51.119Z,1022.2
2017-06-04T07:06:51.116Z,1022.22
2017-06-04T07:07:51.116Z,1022.19
2017-06-04T07:08:51.115Z,1022.16
2017-06-04T07:09:51.114Z,1022.16
2017-06-04T07:10:51.113Z,1022.16
2017-06-04T07:11:51.112Z,1022.19
2017-06-04T07:12:51.110Z,1022.24
2017-06-04T07:13:51.109Z,1022.3
2017-06-04T07:14:51.110Z,1022.36
2017-06-04T07:15:51.107Z,1022.34
2017-06-04T07:16:51.110Z,1022.37
2017-06-04T07:17:51.105Z,1022.29
2017-06-04T07:18:51.104Z,1022.3
2017-06-04T07:19:51.104Z,1022.26
2017-06-04T07:20:51.102Z,1022.18
2017-06-04T07:21:51.100Z,1022.17
2017-06-04T07:22:51.101Z,1022.09
2017-06-04T07:23:51.099Z,1022.04
2017-06-04T07:24:51.101Z,1022.03
2017-06-04T07:25:51.096Z,1022.03
2017-06-04T07:26:51.095Z,1021.95
2017-06-04T07:27:51.096Z,1021.92
2017-06-04T07:28:51.093Z,1021.93
2017-06-04T07:29:51.092Z,1021.93
2017-06-04T07:30:51.091Z,1021.9
2017-06-04T07:31:51.091Z,1021.85
2017-06-04T07:32:51.089Z,1021.9
2017-06-04T07:33:51.088Z,1021.9
2017-06-04T07:34:51.087Z,1021.87
2017-06-04T07:35:51.086Z,1021.86
2017-06-04T07:36:51.085Z,1021.89
2017-06-04T07:37:51.085Z,1021.89
2017-06-04T07:38:51.084Z,1021.94
2017-06-04T07:39:51.082Z,1021.97
2017-06-04T07:40:51.082Z,1021.95
2017-06-04T07:41:51.080Z,1021.93
2017-06-04T07:42:51.081Z,1021.86
2017-06-04T07:43:51.078Z,1021.85
2017-06-04T07:44:51.078Z,1021.79
2017-06-04T07:45:51.077Z,1021.76
2017-06-04T07:46:51.077Z,1021.69
2017-06-04T07:47:51.074Z,1021.67
2017-06-04T07:48:51.074Z,1021.72
2017-06-04T07:49:51.074Z,1021.66
2017-06-04T07:50:51.071Z,1021.67
2017-06-04T07:51:51.071Z,1021.73
2017-06-04T07:52:51.070Z,1021.82
2017-06-04T07:53:51.070Z,1021.84
2017-06-04T07:54:51.068Z,1021.82
2017-06-04T07:55:51.067Z,1021.85
2017-06-04T07:56:51.067Z,1021.88
2017-06-04T07:57:51.065Z,1021.83
2017-06-04T07:58:51.068Z,1021.78
2017-06-04T07:59:51.064Z,1021.85
2017-06-04T08:00:51.064Z,1021.89
2017-06-04T08:01:51.062Z,1021.91
2017-06-04T08:02:51.061Z,1021.89
2017-06-04T08:03:51.060Z,1021.93
2017-06-04T08:04:51.060Z,1021.89
2017-06-04T08:05:51.058Z,1021.87
2017-06-04T08:06:51.057Z,1021.88
2017-06-04T08:07:51.055Z,1021.92
2017-06-04T08:08:51.054Z,1021.9
2017-06-04T08:09:51.054Z,1021.91
2017-06-04T08:10:51.053Z,1021.93
2017-06-04T08:11:51.052Z,1021.95
2017-06-04T08:12:51.054Z,1021.92
2017-06-04T08:13:51.049Z,1021.91
2017-06-04T08:14:51.049Z,1021.87
2017-06-04T08:15:51.048Z,1021.79
2017-06-04T08:16:51.047Z,1021.7
2017-06-04T08:17:51.046Z,1021.63
2017-06-04T08:18:51.045Z,1021.53
2017-06-04T08:19:51.043Z,1021.49
2017-06-04T08:20:51.043Z,1021.46
2017-06-04T08:21:51.042Z,1021.44
2017-06-04T08:22:51.042Z,1021.46
2017-06-04T08:23:51.039Z,1021.53
2017-06-04T08:24:51.039Z,1021.53
2017-06-04T08:25:51.038Z,1021.61
2017-06-04T08:26:51.040Z,1021.64
2017-06-04T08:27:51.036Z,1021.64
2017-06-04T08:28:51.035Z,1021.65
2017-06-04T08:29:51.035Z,1021.57
2017-06-04T08:30:51.033Z,1021.39
2017-06-04T08:31:51.032Z,1021.27
2017-06-04T08:32:51.031Z,1021.21
2017-06-04T08:33:51.031Z,1021.21
2017-06-04T08:34:51.030Z,1021.16
2017-06-04T08:35:51.029Z,1021.17
2017-06-04T08:36:51.028Z,1021.14
2017-06-04T08:37:51.027Z,1021.14
2017-06-04T08:38:51.026Z,1021.14
2017-06-04T08:39:51.026Z,1021.12
2017-06-04T08:40:51.025Z,1021.12
2017-06-04T08:41:51.024Z,1021.18
2017-06-04T08:42:51.023Z,1021.34
2017-06-04T08:43:51.023Z,1021.34
2017-06-04T08:44:51.022Z,1021.32
2017-06-04T08:45:51.021Z,1021.22
2017-06-04T08:46:51.020Z,1021.15
2017-06-04T08:47:51.020Z,1021.13
2017-06-04T08:48:51.018Z,1021.16
2017-06-04T08:49:51.018Z,1021.26
2017-06-04T08:50:51.017Z,1021.3
2017-06-04T08:51:51.017Z,1021.27
2017-06-04T08:52:51.015Z,1021.37
2017-06-04T08:53:51.015Z,1021.28
2017-06-04T08:54:51.015Z,1021.24
2017-06-04T08:55:51.014Z,1021.23
2017-06-04T08:56:51.013Z,1021.13
2017-06-04T08:57:51.011Z,1020.96
2017-06-04T08:58:51.012Z,1020.72
2017-06-04T08:59:51.011Z,1020.51
2017-06-04T09:00:51.011Z,1020.32
2017-06-04T09:01:51.012Z,1020.13
2017-06-04T09:02:51.009Z,1020.02
2017-06-04T09:03:51.008Z,1019.97
2017-06-04T09:04:51.009Z,1019.92
2017-06-04T09:05:51.010Z,1019.93
2017-06-04T09:06:51.009Z,1020.05
2017-06-04T09:07:51.009Z,1020.02
2017-06-04T09:08:51.009Z,1019.97
2017-06-04T09:09:51.009Z,1020
2017-06-04T09:10:51.009Z,1019.99
2017-06-04T09:11:51.010Z,1019.94
2017-06-04T09:12:51.011Z,1019.97
2017-06-04T09:13:51.013Z,1019.95
2017-06-04T09:14:51.011Z,1019.97
2017-06-04T09:15:51.012Z,1020.02
2017-06-04T09:16:51.015Z,1020.09
2017-06-04T09:17:51.014Z,1020.07
2017-06-04T09:18:51.013Z,1020.12
2017-06-04T09:19:51.014Z,1020.23
2017-06-04T09:20:51.014Z,1020.26
2017-06-04T09:21:51.014Z,1020.45
2017-06-04T09:22:51.015Z,1020.68
2017-06-04T09:23:51.016Z,1020.94
2017-06-04T09:24:51.016Z,1021.26
2017-06-04T09:25:51.016Z,1021.41
2017-06-04T09:26:51.016Z,1021.5
2017-06-04T09:27:51.019Z,1021.64
2017-06-04T09:28:51.017Z,1021.73
2017-06-04T09:29:51.016Z,1021.78
2017-06-04T09:30:51.016Z,1021.84
2017-06-04T09:31:51.017Z,1021.83
2017-06-04T09:32:51.016Z,1021.84
2017-06-04T09:33:51.016Z,1021.81
2017-06-04T09:34:51.016Z,1021.77
2017-06-04T09:35:51.014Z,1021.78
2017-06-04T09:36:51.014Z,1021.86
2017-06-04T09:37:51.013Z,1021.94
2017-06-04T09:38:51.013Z,1022.01
2017-06-04T09:39:51.013Z,1022.06
2017-06-04T09:40:51.011Z,1022.08
2017-06-04T09:41:51.011Z,1022.11
2017-06-04T09:42:51.009Z,1022.15
2017-06-04T09:43:51.007Z,1022.21
2017-06-04T09:44:51.007Z,1022.2
2017-06-04T09:45:51.006Z,1022.19
2017-06-04T09:46:51.005Z,1022.21
2017-06-04T09:47:51.004Z,1022.26
2017-06-04T09:48:51.004Z,1022.35
2017-06-04T09:49:51.003Z,1022.44
2017-06-04T09:50:51.001Z,1022.58
2017-06-04T09:51:51.000Z,1022.67
2017-06-04T09:52:50.999Z,1022.81
2017-06-04T09:53:50.996Z,1022.93
2017-06-04T09:54:50.995Z,1022.98
2017-06-04T09:55:50.993Z,1023.1
2017-06-04T09:56:50.992Z,1023.16
2017-06-04T09:57:50.991Z,1023.26
2017-06-04T09:58:50.988Z,1023.27
2017-06-04T09:59:50.987Z,1023.27
2017-06-04T10:00:50.985Z,1023.33
2017-06-04T10:01:50.982Z,1023.36
2017-06-04T10:02:50.980Z,1023.39
2017-06-04T10:03:50.979Z,1023.44
2017-06-04T10:04:50.977Z,1023.45
2017-06-04T10:05:50.975Z,1023.48
2017-06-04T10:06:50.972Z,1023.63
2017-06-04T10:07:50.970Z,1023.65
2017-06-04T10:08:50.968Z,1023.64
2017-06-04T10:09:50.965Z,1023.69
2017-06-04T10:10:50.962Z,1023.77
2017-06-04T10:11:50.961Z,1023.77
2017-06-04T10:12:50.959Z,1023.77
2017-06-04T10:13:50.955Z,1023.87
2017-06-04T10:14:50.953Z,1023.84
2017-06-04T10:15:50.953Z,1023.9
2017-06-04T10:16:50.949Z,1023.89
2017-06-04T10:17:50.945Z,1023.88
2017-06-04T10:18:50.955Z,1023.87
2017-06-04T10:19:50.941Z,1023.86
2017-06-04T10:20:50.937Z,1023.9
2017-06-04T10:21:50.935Z,1023.86
2017-06-04T10:22:50.933Z,1023.91
2017-06-04T10:23:50.929Z,1023.9
2017-06-04T10:24:50.926Z,1023.95
2017-06-04T10:25:50.924Z,1023.95
2017-06-04T10:26:50.922Z,1023.97
2017-06-04T10:27:50.918Z,1024
2017-06-04T10:28:50.916Z,1024
2017-06-04T10:29:50.914Z,1023.99
2017-06-04T10:30:50.914Z,1024.04
2017-06-04T10:31:50.908Z,1024.02
2017-06-04T10:32:50.906Z,1024.03
2017-06-04T10:33:50.902Z,1024.03
2017-06-04T10:34:50.899Z,1023.98
2017-06-04T10:35:50.897Z,1024.1
2017-06-04T10:36:50.893Z,1024.08
2017-06-04T10:37:50.890Z,1024.07
2017-06-04T10:38:50.887Z,1024.12
2017-06-04T10:39:50.884Z,1024.08
2017-06-04T10:40:50.882Z,1024
2017-06-04T10:41:50.879Z,1023.97
2017-06-04T10:42:50.875Z,1023.94
2017-06-04T10:43:50.872Z,1023.81
2017-06-04T10:44:50.870Z,1023.73
2017-06-04T10:45:50.867Z,1023.73
2017-06-04T10:46:50.864Z,1023.7
2017-06-04T10:47:50.863Z,1023.69
2017-06-04T10:48:50.859Z,1023.69
2017-06-04T10:49:50.864Z,1023.63
2017-06-04T10:50:50.853Z,1023.61
2017-06-04T10:51:50.852Z,1023.51
2017-06-04T10:52:50.849Z,1023.47
2017-06-04T10:53:50.846Z,1023.51
2017-06-04T10:54:50.843Z,1023.45
2017-06-04T10:55:50.841Z,1023.44
2017-06-04T10:56:50.838Z,1023.43
2017-06-04T10:57:50.836Z,1023.48
2017-06-04T10:58:50.834Z,1023.55
2017-06-04T10:59:50.832Z,1023.48
2017-06-04T11:00:50.828Z,1023.48
2017-06-04T11:01:50.826Z,1023.5
2017-06-04T11:02:50.824Z,1023.6
2017-06-04T11:03:50.823Z,1023.64
2017-06-04T11:04:50.819Z,1023.7
2017-06-04T11:05:50.820Z,1023.8
2017-06-04T11:06:50.815Z,1023.82
2017-06-04T11:07:50.812Z,1023.83
2017-06-04T11:08:50.810Z,1023.86
2017-06-04T11:09:50.809Z,1023.8
2017-06-04T11:10:50.806Z,1023.81
2017-06-04T11:11:50.802Z,1023.79
2017-06-04T11:12:50.802Z,1023.81
2017-06-04T11:13:50.802Z,1023.71
2017-06-04T11:14:50.797Z,1023.68
2017-06-04T11:15:50.794Z,1023.69
2017-06-04T11:16:50.792Z,1023.6
2017-06-04T11:17:50.790Z,1023.47
2017-06-04T11:18:50.787Z,1023.45
2017-06-04T11:19:50.785Z,1023.59
2017-06-04T11:20:50.783Z,1023.67
2017-06-04T11:21:50.782Z,1023.72
2017-06-04T11:22:50.778Z,1023.68
2017-06-04T11:23:50.777Z,1023.65
2017-06-04T11:24:50.775Z,1023.71
2017-06-04T11:25:50.773Z,1023.75
2017-06-04T11:26:50.771Z,1023.76
2017-06-04T11:27:50.770Z,1023.83
2017-06-04T11:28:50.768Z,1023.78
2017-06-04T11:29:50.766Z,1023.79
2017-06-04T11:30:50.764Z,1023.89
2017-06-04T11:31:50.762Z,1023.94
2017-06-04T11:32:50.760Z,1023.9
2017-06-04T11:33:50.784Z,1023.86
2017-06-04T11:34:50.756Z,1023.82
2017-06-04T11:35:50.753Z,1023.86
2017-06-04T11:36:50.751Z,1023.79
2017-06-04T11:37:50.751Z,1023.63
2017-06-04T11:38:50.746Z,1023.51
2017-06-04T11:39:50.745Z,1023.52
2017-06-04T11:40:50.743Z,1023.4
2017-06-04T11:41:50.741Z,1023.36
2017-06-04T11:42:50.740Z,1023.35
2017-06-04T11:43:50.741Z,1023.38
2017-06-04T11:44:50.735Z,1023.43
2017-06-04T11:45:50.735Z,1023.45
2017-06-04T11:46:50.733Z,1023.62
2017-06-04T11:47:50.729Z,1023.59
2017-06-04T11:48:50.729Z,1023.65
2017-06-04T11:49:50.728Z,1023.71
2017-06-04T11:50:50.726Z,1023.83
2017-06-04T11:51:50.723Z,1023.8
2017-06-04T11:52:50.724Z,1023.77
2017-06-04T11:53:50.723Z,1023.7
2017-06-04T11:54:50.721Z,1023.66
2017-06-04T11:55:50.717Z,1023.69
2017-06-04T11:56:50.715Z,1023.74
2017-06-04T11:57:50.715Z,1023.72
2017-06-04T11:58:50.711Z,1023.69
2017-06-04T11:59:50.710Z,1023.52
2017-06-04T12:00:50.709Z,1023.62
2017-06-04T12:01:50.708Z,1023.52
2017-06-04T12:02:50.705Z,1023.44
2017-06-04T12:03:50.704Z,1023.38
2017-06-04T12:04:50.703Z,1023.46
2017-06-04T12:05:50.702Z,1023.56
2017-06-04T12:06:50.700Z,1023.69
2017-06-04T12:07:50.700Z,1023.93
2017-06-04T12:08:50.697Z,1023.95